sensor_id;sensor_type;location;lat;lon;timestamp;pressure;altitude;pressure_sealevel;temperature;humidity
37792;BME280;29527;55.766;37.570;2023-03-20T00:01:19;100332.84;;;0.08;57.14
37792;BME280;29527;55.766;37.570;2023-03-20T00:03:46;100332.06;;;0.05;56.61
37792;BME280;29527;55.766;37.570;2023-03-20T00:06:20;100339.84;;;0.08;56.78
37792;BME280;29527;55.766;37.570;2023-03-20T00:08:48;100338.09;;;0.08;56.53
37792;BME280;29527;55.766;37.570;2023-03-20T00:13:51;100303.50;;;-0.09;56.78
37792;BME280;29527;55.766;37.570;2023-03-20T00:16:17;100339.75;;;0.12;57.10
37792;BME280;29527;55.766;37.570;2023-03-20T00:18:42;100340.56;;;0.14;56.59
37792;BME280;29527;55.766;37.570;2023-03-20T00:21:17;100336.81;;;0.22;56.94
37792;BME280;29527;55.766;37.570;2023-03-20T00:23:43;100337.81;;;0.18;56.07
37792;BME280;29527;55.766;37.570;2023-03-20T00:26:13;100339.72;;;0.14;56.70
37792;BME280;29527;55.766;37.570;2023-03-20T00:31:26;100342.34;;;0.14;57.05
37792;BME280;29527;55.766;37.570;2023-03-20T00:33:53;100332.94;;;0.05;56.62
37792;BME280;29527;55.766;37.570;2023-03-20T00:36:20;100329.47;;;0.03;57.46
37792;BME280;29527;55.766;37.570;2023-03-20T00:38:46;100327.75;;;0.02;57.05
37792;BME280;29527;55.766;37.570;2023-03-20T00:41:20;100329.47;;;0.03;57.13
37792;BME280;29527;55.766;37.570;2023-03-20T00:43:49;100320.78;;;0.01;57.69
37792;BME280;29527;55.766;37.570;2023-03-20T00:46:17;100326.16;;;-0.04;57.56
37792;BME280;29527;55.766;37.570;2023-03-20T00:48:43;100326.09;;;-0.02;58.22
37792;BME280;29527;55.766;37.570;2023-03-20T00:51:09;100314.75;;;-0.04;57.22
37792;BME280;29527;55.766;37.570;2023-03-20T00:53:35;100319.03;;;0.00;57.83
37792;BME280;29527;55.766;37.570;2023-03-20T00:56:01;100306.00;;;-0.05;57.45
37792;BME280;29527;55.766;37.570;2023-03-20T00:58:26;100312.03;;;-0.01;57.11
37792;BME280;29527;55.766;37.570;2023-03-20T01:00:52;100319.78;;;0.05;57.19
37792;BME280;29527;55.766;37.570;2023-03-20T01:03:19;100316.22;;;0.06;57.45
37792;BME280;29527;55.766;37.570;2023-03-20T01:05:46;100317.16;;;0.04;56.86
37792;BME280;29527;55.766;37.570;2023-03-20T01:08:18;100314.63;;;0.01;57.56
37792;BME280;29527;55.766;37.570;2023-03-20T01:10:44;100318.94;;;0.03;57.16
37792;BME280;29527;55.766;37.570;2023-03-20T01:15:46;100317.94;;;0.07;57.41
37792;BME280;29527;55.766;37.570;2023-03-20T01:18:15;100313.59;;;0.06;57.57
37792;BME280;29527;55.766;37.570;2023-03-20T01:20:40;100310.09;;;0.06;57.94
37792;BME280;29527;55.766;37.570;2023-03-20T01:23:06;100313.53;;;0.08;57.62
37792;BME280;29527;55.766;37.570;2023-03-20T01:25:32;100311.00;;;0.05;57.55
37792;BME280;29527;55.766;37.570;2023-03-20T01:27:57;100305.72;;;0.05;57.61
37792;BME280;29527;55.766;37.570;2023-03-20T01:30:29;100303.06;;;0.06;58.43
37792;BME280;29527;55.766;37.570;2023-03-20T01:32:56;100308.31;;;0.06;57.81
37792;BME280;29527;55.766;37.570;2023-03-20T01:35:24;100278.19;;;-0.13;57.80
37792;BME280;29527;55.766;37.570;2023-03-20T01:37:50;100272.09;;;-0.16;58.28
37792;BME280;29527;55.766;37.570;2023-03-20T01:41:14;100313.28;;;0.17;58.67
37792;BME280;29527;55.766;37.570;2023-03-20T01:43:38;100298.47;;;0.13;57.90
37792;BME280;29527;55.766;37.570;2023-03-20T01:46:14;100302.84;;;0.14;57.24
37792;BME280;29527;55.766;37.570;2023-03-20T01:51:29;100282.25;;;-0.03;57.66
37792;BME280;29527;55.766;37.570;2023-03-20T01:56:46;100281.50;;;-0.07;58.26
37792;BME280;29527;55.766;37.570;2023-03-20T01:59:17;100287.75;;;-0.11;58.36
37792;BME280;29527;55.766;37.570;2023-03-20T02:01:44;100282.63;;;-0.16;57.86
37792;BME280;29527;55.766;37.570;2023-03-20T02:04:11;100286.25;;;-0.20;58.53
37792;BME280;29527;55.766;37.570;2023-03-20T02:06:39;100282.88;;;-0.25;58.49
37792;BME280;29527;55.766;37.570;2023-03-20T02:09:06;100279.31;;;-0.22;59.49
37792;BME280;29527;55.766;37.570;2023-03-20T02:11:32;100288.00;;;-0.20;59.63
37792;BME280;29527;55.766;37.570;2023-03-20T02:13:59;100281.91;;;-0.21;58.62
37792;BME280;29527;55.766;37.570;2023-03-20T02:16:25;100274.91;;;-0.22;58.65
37792;BME280;29527;55.766;37.570;2023-03-20T02:18:53;100271.41;;;-0.22;58.83
37792;BME280;29527;55.766;37.570;2023-03-20T02:22:03;100274.72;;;-0.16;59.13
37792;BME280;29527;55.766;37.570;2023-03-20T02:25:06;100268.56;;;-0.15;58.77
37792;BME280;29527;55.766;37.570;2023-03-20T02:28:00;100258.94;;;-0.16;59.02
37792;BME280;29527;55.766;37.570;2023-03-20T02:36:30;100258.03;;;-0.15;57.56
37792;BME280;29527;55.766;37.570;2023-03-20T02:39:16;100261.66;;;-0.19;57.52
37792;BME280;29527;55.766;37.570;2023-03-20T02:45:12;100257.31;;;-0.20;56.92
37792;BME280;29527;55.766;37.570;2023-03-20T02:47:50;100256.50;;;-0.22;57.04
37792;BME280;29527;55.766;37.570;2023-03-20T02:53:16;100252.25;;;-0.27;57.11
37792;BME280;29527;55.766;37.570;2023-03-20T02:58:27;100246.31;;;-0.34;56.47
37792;BME280;29527;55.766;37.570;2023-03-20T03:00:56;100252.38;;;-0.32;57.22
37792;BME280;29527;55.766;37.570;2023-03-20T03:03:31;100247.94;;;-0.30;56.57
37792;BME280;29527;55.766;37.570;2023-03-20T03:06:06;100253.09;;;-0.27;56.50
37792;BME280;29527;55.766;37.570;2023-03-20T03:08:38;100247.91;;;-0.28;56.87
37792;BME280;29527;55.766;37.570;2023-03-20T03:11:07;100237.41;;;-0.30;56.06
37792;BME280;29527;55.766;37.570;2023-03-20T03:13:36;100232.34;;;-0.36;56.31
37792;BME280;29527;55.766;37.570;2023-03-20T03:16:11;100235.69;;;-0.31;56.02
37792;BME280;29527;55.766;37.570;2023-03-20T03:18:39;100233.88;;;-0.29;56.80
37792;BME280;29527;55.766;37.570;2023-03-20T03:21:09;100235.59;;;-0.28;56.66
37792;BME280;29527;55.766;37.570;2023-03-20T03:23:41;100244.31;;;-0.26;56.61
37792;BME280;29527;55.766;37.570;2023-03-20T03:26:13;100227.56;;;-0.23;56.51
37792;BME280;29527;55.766;37.570;2023-03-20T03:28:42;100184.44;;;-0.48;56.27
37792;BME280;29527;55.766;37.570;2023-03-20T03:31:12;100220.31;;;-0.15;56.51
37792;BME280;29527;55.766;37.570;2023-03-20T03:33:42;100225.34;;;-0.07;56.41
37792;BME280;29527;55.766;37.570;2023-03-20T03:36:39;100221.47;;;0.05;56.75
37792;BME280;29527;55.766;37.570;2023-03-20T03:42:04;100213.16;;;0.19;55.63
37792;BME280;29527;55.766;37.570;2023-03-20T03:49:47;100210.28;;;0.53;55.09
37792;BME280;29527;55.766;37.570;2023-03-20T03:52:19;100207.28;;;0.66;54.57
37792;BME280;29527;55.766;37.570;2023-03-20T03:55:06;100213.56;;;0.87;54.33
37792;BME280;29527;55.766;37.570;2023-03-20T03:57:40;100212.38;;;0.97;53.99
37792;BME280;29527;55.766;37.570;2023-03-20T04:00:08;100194.59;;;1.03;53.99
37792;BME280;29527;55.766;37.570;2023-03-20T04:02:36;100174.31;;;1.05;53.33
37792;BME280;29527;55.766;37.570;2023-03-20T04:05:04;100175.31;;;1.26;52.47
37792;BME280;29527;55.766;37.570;2023-03-20T04:07:31;100202.47;;;1.53;51.56
37792;BME280;29527;55.766;37.570;2023-03-20T04:09:56;100198.44;;;1.67;51.13
37792;BME280;29527;55.766;37.570;2023-03-20T04:12:37;100203.41;;;1.98;50.96
37792;BME280;29527;55.766;37.570;2023-03-20T04:15:03;100199.78;;;2.23;49.89
37792;BME280;29527;55.766;37.570;2023-03-20T04:17:29;100194.88;;;3.00;48.61
37792;BME280;29527;55.766;37.570;2023-03-20T04:19:55;100168.09;;;4.05;44.80
37792;BME280;29527;55.766;37.570;2023-03-20T04:22:21;100175.09;;;5.47;43.43
37792;BME280;29527;55.766;37.570;2023-03-20T04:24:47;100193.78;;;6.43;40.39
37792;BME280;29527;55.766;37.570;2023-03-20T04:27:13;100164.59;;;6.58;39.39
37792;BME280;29527;55.766;37.570;2023-03-20T04:29:38;100173.75;;;7.13;37.68
37792;BME280;29527;55.766;37.570;2023-03-20T04:32:05;100186.59;;;8.21;36.17
37792;BME280;29527;55.766;37.570;2023-03-20T04:34:31;100190.09;;;9.17;33.70
37792;BME280;29527;55.766;37.570;2023-03-20T04:36:57;100175.50;;;9.73;32.60
37792;BME280;29527;55.766;37.570;2023-03-20T04:39:25;100148.53;;;10.38;30.32
37792;BME280;29527;55.766;37.570;2023-03-20T04:41:51;100155.00;;;11.75;28.92
37792;BME280;29527;55.766;37.570;2023-03-20T04:44:17;100169.00;;;13.42;25.75
37792;BME280;29527;55.766;37.570;2023-03-20T04:46:42;100173.44;;;14.25;24.37
37792;BME280;29527;55.766;37.570;2023-03-20T04:49:07;100167.38;;;14.91;22.87
37792;BME280;29527;55.766;37.570;2023-03-20T04:51:33;100171.84;;;15.30;22.03
37792;BME280;29527;55.766;37.570;2023-03-20T04:53:58;100170.19;;;16.13;20.88
37792;BME280;29527;55.766;37.570;2023-03-20T04:56:24;100167.44;;;16.96;19.53
37792;BME280;29527;55.766;37.570;2023-03-20T04:58:49;100175.47;;;17.58;18.13
37792;BME280;29527;55.766;37.570;2023-03-20T05:01:15;100171.84;;;17.76;17.29
37792;BME280;29527;55.766;37.570;2023-03-20T05:03:40;100168.13;;;17.16;17.92
37792;BME280;29527;55.766;37.570;2023-03-20T05:06:06;100172.03;;;15.95;18.92
37792;BME280;29527;55.766;37.570;2023-03-20T05:08:32;100169.19;;;14.52;20.67
37792;BME280;29527;55.766;37.570;2023-03-20T05:10:57;100174.03;;;13.46;22.47
37792;BME280;29527;55.766;37.570;2023-03-20T05:13:23;100180.78;;;12.44;23.88
37792;BME280;29527;55.766;37.570;2023-03-20T05:15:48;100165.03;;;11.39;24.07
37792;BME280;29527;55.766;37.570;2023-03-20T05:18:14;100179.97;;;10.71;25.14
37792;BME280;29527;55.766;37.570;2023-03-20T05:20:39;100189.56;;;10.01;26.28
37792;BME280;29527;55.766;37.570;2023-03-20T05:23:05;100184.09;;;9.52;26.45
37792;BME280;29527;55.766;37.570;2023-03-20T05:25:30;100170.94;;;8.97;26.78
37792;BME280;29527;55.766;37.570;2023-03-20T05:27:56;100182.41;;;8.72;26.88
37792;BME280;29527;55.766;37.570;2023-03-20T05:30:21;100189.47;;;8.45;27.59
37792;BME280;29527;55.766;37.570;2023-03-20T05:32:50;100190.97;;;8.22;27.55
37792;BME280;29527;55.766;37.570;2023-03-20T05:35:17;100183.50;;;8.00;28.01
37792;BME280;29527;55.766;37.570;2023-03-20T05:37:42;100184.41;;;8.13;28.23
37792;BME280;29527;55.766;37.570;2023-03-20T05:40:12;100178.88;;;8.44;27.75
37792;BME280;29527;55.766;37.570;2023-03-20T05:42:37;100189.66;;;9.23;26.68
37792;BME280;29527;55.766;37.570;2023-03-20T05:45:04;100182.19;;;10.29;25.24
37792;BME280;29527;55.766;37.570;2023-03-20T05:47:29;100185.50;;;11.85;23.28
37792;BME280;29527;55.766;37.570;2023-03-20T05:49:55;100182.81;;;13.89;20.65
37792;BME280;29527;55.766;37.570;2023-03-20T05:52:21;100182.25;;;15.63;19.00
37792;BME280;29527;55.766;37.570;2023-03-20T05:54:47;100177.53;;;17.30;16.94
37792;BME280;29527;55.766;37.570;2023-03-20T05:57:12;100158.38;;;19.10;15.42
37792;BME280;29527;55.766;37.570;2023-03-20T05:59:37;100158.09;;;20.88;13.78
37792;BME280;29527;55.766;37.570;2023-03-20T06:02:03;100178.91;;;21.34;13.68
37792;BME280;29527;55.766;37.570;2023-03-20T06:04:28;100180.31;;;22.78;12.06
37792;BME280;29527;55.766;37.570;2023-03-20T06:06:54;100159.56;;;22.04;12.37
37792;BME280;29527;55.766;37.570;2023-03-20T06:09:20;100173.78;;;21.01;12.79
37792;BME280;29527;55.766;37.570;2023-03-20T06:11:46;100185.81;;;19.97;13.61
37792;BME280;29527;55.766;37.570;2023-03-20T06:14:11;100182.63;;;18.87;13.87
37792;BME280;29527;55.766;37.570;2023-03-20T06:16:36;100187.13;;;17.85;15.09
37792;BME280;29527;55.766;37.570;2023-03-20T06:19:02;100180.84;;;17.50;15.52
37792;BME280;29527;55.766;37.570;2023-03-20T06:21:27;100182.41;;;17.53;15.31
37792;BME280;29527;55.766;37.570;2023-03-20T06:23:53;100177.31;;;17.23;15.18
37792;BME280;29527;55.766;37.570;2023-03-20T06:26:19;100178.75;;;16.91;16.13
37792;BME280;29527;55.766;37.570;2023-03-20T06:28:45;100175.94;;;16.83;15.68
37792;BME280;29527;55.766;37.570;2023-03-20T06:31:11;100179.34;;;16.85;15.61
37792;BME280;29527;55.766;37.570;2023-03-20T06:33:36;100171.88;;;16.60;16.21
37792;BME280;29527;55.766;37.570;2023-03-20T06:36:02;100173.16;;;16.38;16.28
37792;BME280;29527;55.766;37.570;2023-03-20T06:38:28;100170.69;;;16.27;16.17
37792;BME280;29527;55.766;37.570;2023-03-20T06:40:54;100171.09;;;16.50;16.16
37792;BME280;29527;55.766;37.570;2023-03-20T06:43:19;100162.97;;;17.04;15.62
37792;BME280;29527;55.766;37.570;2023-03-20T06:45:45;100164.19;;;18.06;15.03
37792;BME280;29527;55.766;37.570;2023-03-20T06:48:11;100138.19;;;19.29;13.92
37792;BME280;29527;55.766;37.570;2023-03-20T06:50:36;100161.09;;;20.46;13.29
37792;BME280;29527;55.766;37.570;2023-03-20T06:53:02;100165.13;;;21.35;12.15
37792;BME280;29527;55.766;37.570;2023-03-20T06:55:28;100166.97;;;22.10;11.80
37792;BME280;29527;55.766;37.570;2023-03-20T06:57:53;100143.72;;;23.58;10.93
37792;BME280;29527;55.766;37.570;2023-03-20T07:00:19;100155.03;;;24.52;10.18
37792;BME280;29527;55.766;37.570;2023-03-20T07:02:46;100128.03;;;24.22;10.06
37792;BME280;29527;55.766;37.570;2023-03-20T07:05:12;100128.00;;;23.25;10.69
37792;BME280;29527;55.766;37.570;2023-03-20T07:07:38;100141.84;;;23.02;11.08
37792;BME280;29527;55.766;37.570;2023-03-20T07:10:03;100143.06;;;23.21;11.19
37792;BME280;29527;55.766;37.570;2023-03-20T07:12:29;100131.56;;;23.26;11.05
37792;BME280;29527;55.766;37.570;2023-03-20T07:14:55;100142.97;;;22.42;11.70
37792;BME280;29527;55.766;37.570;2023-03-20T07:17:20;100144.91;;;21.45;12.29
37792;BME280;29527;55.766;37.570;2023-03-20T07:19:47;100114.03;;;20.46;13.11
37792;BME280;29527;55.766;37.570;2023-03-20T07:22:20;100145.34;;;19.62;13.70
37792;BME280;29527;55.766;37.570;2023-03-20T07:24:47;100138.00;;;18.31;14.61
37792;BME280;29527;55.766;37.570;2023-03-20T07:27:12;100139.34;;;17.76;15.28
37792;BME280;29527;55.766;37.570;2023-03-20T07:29:37;100146.50;;;17.16;15.69
37792;BME280;29527;55.766;37.570;2023-03-20T07:32:03;100142.06;;;16.97;16.13
37792;BME280;29527;55.766;37.570;2023-03-20T07:34:28;100142.69;;;17.35;15.76
37792;BME280;29527;55.766;37.570;2023-03-20T07:36:54;100136.84;;;17.83;15.56
37792;BME280;29527;55.766;37.570;2023-03-20T07:39:20;100104.59;;;18.06;14.88
37792;BME280;29527;55.766;37.570;2023-03-20T07:41:46;100129.22;;;19.20;13.84
37792;BME280;29527;55.766;37.570;2023-03-20T07:44:11;100119.06;;;20.72;13.02
37792;BME280;29527;55.766;37.570;2023-03-20T07:46:39;100103.75;;;22.21;11.35
37792;BME280;29527;55.766;37.570;2023-03-20T07:49:05;100122.16;;;23.77;10.59
37792;BME280;29527;55.766;37.570;2023-03-20T07:51:30;100127.50;;;24.81;9.61
37792;BME280;29527;55.766;37.570;2023-03-20T07:53:56;100125.13;;;25.98;9.00
37792;BME280;29527;55.766;37.570;2023-03-20T07:56:22;100127.16;;;26.55;8.04
37792;BME280;29527;55.766;37.570;2023-03-20T07:58:47;100125.25;;;26.80;7.87
37792;BME280;29527;55.766;37.570;2023-03-20T08:01:13;100131.44;;;26.44;8.28
37792;BME280;29527;55.766;37.570;2023-03-20T08:03:39;100112.91;;;25.28;8.97
37792;BME280;29527;55.766;37.570;2023-03-20T08:06:05;100123.28;;;23.47;9.74
37792;BME280;29527;55.766;37.570;2023-03-20T08:08:33;100104.25;;;21.43;11.19
37792;BME280;29527;55.766;37.570;2023-03-20T08:11:00;100113.41;;;19.72;12.25
37792;BME280;29527;55.766;37.570;2023-03-20T08:13:25;100109.63;;;18.01;13.84
37792;BME280;29527;55.766;37.570;2023-03-20T08:15:51;100109.09;;;16.48;15.23
37792;BME280;29527;55.766;37.570;2023-03-20T08:18:17;100113.00;;;15.44;16.13
37792;BME280;29527;55.766;37.570;2023-03-20T08:20:44;100092.34;;;14.47;16.73
37792;BME280;29527;55.766;37.570;2023-03-20T08:23:09;100120.22;;;13.97;17.65
37792;BME280;29527;55.766;37.570;2023-03-20T08:25:36;100105.56;;;13.60;18.35
37792;BME280;29527;55.766;37.570;2023-03-20T08:28:01;100119.63;;;13.43;18.19
37792;BME280;29527;55.766;37.570;2023-03-20T08:30:28;100112.44;;;13.22;18.14
37792;BME280;29527;55.766;37.570;2023-03-20T08:32:54;100104.94;;;12.95;17.94
37792;BME280;29527;55.766;37.570;2023-03-20T08:35:20;100101.25;;;12.74;17.98
37792;BME280;29527;55.766;37.570;2023-03-20T08:37:45;100101.88;;;12.57;18.63
37792;BME280;29527;55.766;37.570;2023-03-20T08:40:11;100102.06;;;12.44;18.66
37792;BME280;29527;55.766;37.570;2023-03-20T08:42:38;100094.56;;;12.47;19.03
37792;BME280;29527;55.766;37.570;2023-03-20T08:45:04;100083.19;;;12.34;19.15
37792;BME280;29527;55.766;37.570;2023-03-20T08:47:29;100100.00;;;12.36;19.35
37792;BME280;29527;55.766;37.570;2023-03-20T08:49:55;100090.75;;;12.29;19.53
37792;BME280;29527;55.766;37.570;2023-03-20T08:52:21;100071.56;;;12.12;19.61
37792;BME280;29527;55.766;37.570;2023-03-20T08:54:46;100094.38;;;12.06;19.70
37792;BME280;29527;55.766;37.570;2023-03-20T08:57:12;100093.03;;;12.01;19.59
37792;BME280;29527;55.766;37.570;2023-03-20T08:59:37;100085.22;;;11.98;19.36
37792;BME280;29527;55.766;37.570;2023-03-20T09:02:03;100085.50;;;12.06;20.16
37792;BME280;29527;55.766;37.570;2023-03-20T09:04:28;100088.00;;;12.19;19.94
37792;BME280;29527;55.766;37.570;2023-03-20T09:06:54;100073.81;;;12.28;19.55
37792;BME280;29527;55.766;37.570;2023-03-20T09:09:20;100084.97;;;12.45;19.39
37792;BME280;29527;55.766;37.570;2023-03-20T09:11:51;100083.13;;;12.45;19.01
37792;BME280;29527;55.766;37.570;2023-03-20T09:14:16;100085.06;;;12.43;18.82
37792;BME280;29527;55.766;37.570;2023-03-20T09:16:42;100079.97;;;12.40;17.84
37792;BME280;29527;55.766;37.570;2023-03-20T09:19:07;100080.50;;;12.34;18.10
37792;BME280;29527;55.766;37.570;2023-03-20T09:21:33;100075.41;;;12.19;18.67
37792;BME280;29527;55.766;37.570;2023-03-20T09:23:58;100075.72;;;12.05;18.45
37792;BME280;29527;55.766;37.570;2023-03-20T09:26:24;100075.59;;;11.95;19.02
37792;BME280;29527;55.766;37.570;2023-03-20T09:28:49;100072.84;;;11.85;19.14
37792;BME280;29527;55.766;37.570;2023-03-20T09:31:15;100074.69;;;11.62;19.51
37792;BME280;29527;55.766;37.570;2023-03-20T09:33:40;100069.63;;;11.47;20.07
37792;BME280;29527;55.766;37.570;2023-03-20T09:36:06;100071.91;;;11.29;20.50
37792;BME280;29527;55.766;37.570;2023-03-20T09:38:36;100063.78;;;11.31;20.31
37792;BME280;29527;55.766;37.570;2023-03-20T09:41:02;100058.53;;;11.29;20.21
37792;BME280;29527;55.766;37.570;2023-03-20T09:51:58;100045.13;;;10.95;20.56
37792;BME280;29527;55.766;37.570;2023-03-20T09:54:27;100048.03;;;10.81;20.36
37792;BME280;29527;55.766;37.570;2023-03-20T09:56:55;100041.66;;;10.59;20.86
37792;BME280;29527;55.766;37.570;2023-03-20T09:59:23;100036.94;;;10.51;21.02
37792;BME280;29527;55.766;37.570;2023-03-20T10:01:56;100001.66;;;10.33;20.91
37792;BME280;29527;55.766;37.570;2023-03-20T10:04:25;100033.72;;;10.46;21.01
37792;BME280;29527;55.766;37.570;2023-03-20T10:06:52;100026.50;;;10.35;20.36
37792;BME280;29527;55.766;37.570;2023-03-20T10:09:23;99969.97;;;10.04;20.91
37792;BME280;29527;55.766;37.570;2023-03-20T10:19:48;100014.50;;;10.41;21.26
37792;BME280;29527;55.766;37.570;2023-03-20T10:22:25;100018.88;;;10.42;21.64
37792;BME280;29527;55.766;37.570;2023-03-20T10:28:01;100012.47;;;10.56;20.83
37792;BME280;29527;55.766;37.570;2023-03-20T10:37:01;100005.78;;;10.73;20.82
37792;BME280;29527;55.766;37.570;2023-03-20T10:39:53;99998.84;;;10.70;20.54
37792;BME280;29527;55.766;37.570;2023-03-20T10:42:29;99997.75;;;10.73;20.43
37792;BME280;29527;55.766;37.570;2023-03-20T10:45:02;99961.97;;;10.51;20.16
37792;BME280;29527;55.766;37.570;2023-03-20T10:47:34;99988.16;;;10.70;20.25
37792;BME280;29527;55.766;37.570;2023-03-20T10:50:05;99984.97;;;10.65;20.52
37792;BME280;29527;55.766;37.570;2023-03-20T10:52:35;99987.28;;;10.70;20.83
37792;BME280;29527;55.766;37.570;2023-03-20T10:55:06;99979.38;;;10.80;21.05
37792;BME280;29527;55.766;37.570;2023-03-20T10:57:37;99987.66;;;10.76;20.91
37792;BME280;29527;55.766;37.570;2023-03-20T11:00:06;99967.94;;;10.66;21.15
37792;BME280;29527;55.766;37.570;2023-03-20T11:02:35;99973.28;;;10.66;21.30
37792;BME280;29527;55.766;37.570;2023-03-20T11:07:46;99943.09;;;10.53;21.90
37792;BME280;29527;55.766;37.570;2023-03-20T11:10:14;99975.09;;;10.66;21.86
37792;BME280;29527;55.766;37.570;2023-03-20T11:12:46;99939.94;;;10.47;22.65
37792;BME280;29527;55.766;37.570;2023-03-20T11:15:32;99969.88;;;10.75;22.47
37792;BME280;29527;55.766;37.570;2023-03-20T11:18:03;99966.47;;;10.62;23.95
37792;BME280;29527;55.766;37.570;2023-03-20T11:20:36;99965.88;;;10.58;24.05
37792;BME280;29527;55.766;37.570;2023-03-20T11:23:04;99962.94;;;10.50;24.08
37792;BME280;29527;55.766;37.570;2023-03-20T11:25:36;99953.66;;;10.43;24.53
37792;BME280;29527;55.766;37.570;2023-03-20T11:28:34;99960.38;;;10.48;24.95
37792;BME280;29527;55.766;37.570;2023-03-20T11:33:41;99950.56;;;10.25;25.45
37792;BME280;29527;55.766;37.570;2023-03-20T11:38:49;99943.22;;;10.04;26.25
37792;BME280;29527;55.766;37.570;2023-03-20T11:41:25;99935.19;;;10.04;26.48
37792;BME280;29527;55.766;37.570;2023-03-20T11:43:51;99929.59;;;9.96;26.63
37792;BME280;29527;55.766;37.570;2023-03-20T11:46:18;99932.38;;;9.94;26.71
37792;BME280;29527;55.766;37.570;2023-03-20T11:48:45;99930.66;;;9.93;26.78
37792;BME280;29527;55.766;37.570;2023-03-20T11:51:18;99925.72;;;10.00;27.40
37792;BME280;29527;55.766;37.570;2023-03-20T11:56:14;99930.44;;;9.96;27.33
37792;BME280;29527;55.766;37.570;2023-03-20T12:01:13;99923.47;;;9.82;27.30
37792;BME280;29527;55.766;37.570;2023-03-20T12:04:10;99910.59;;;9.87;26.71
37792;BME280;29527;55.766;37.570;2023-03-20T12:09:28;99889.09;;;9.53;27.89
37792;BME280;29527;55.766;37.570;2023-03-20T12:12:07;99899.31;;;9.59;28.22
37792;BME280;29527;55.766;37.570;2023-03-20T12:17:34;99900.59;;;9.67;27.77
37792;BME280;29527;55.766;37.570;2023-03-20T12:25:56;99887.91;;;9.57;28.37
37792;BME280;29527;55.766;37.570;2023-03-20T12:31:43;99872.34;;;9.62;27.71
37792;BME280;29527;55.766;37.570;2023-03-20T12:34:24;99873.56;;;9.58;28.45
37792;BME280;29527;55.766;37.570;2023-03-20T12:36:53;99857.09;;;9.40;28.50
37792;BME280;29527;55.766;37.570;2023-03-20T12:39:27;99874.75;;;9.43;28.83
37792;BME280;29527;55.766;37.570;2023-03-20T12:44:56;99843.84;;;9.39;28.88
37792;BME280;29527;55.766;37.570;2023-03-20T13:03:37;99847.56;;;9.60;29.18
37792;BME280;29527;55.766;37.570;2023-03-20T13:11:34;99840.75;;;9.56;29.53
37792;BME280;29527;55.766;37.570;2023-03-20T13:14:27;99833.94;;;9.52;29.17
37792;BME280;29527;55.766;37.570;2023-03-20T13:17:23;99833.44;;;9.47;29.56
37792;BME280;29527;55.766;37.570;2023-03-20T13:25:34;99822.69;;;9.24;30.52
37792;BME280;29527;55.766;37.570;2023-03-20T13:31:12;99813.94;;;9.22;30.65
37792;BME280;29527;55.766;37.570;2023-03-20T13:34:05;99811.53;;;9.30;29.98
37792;BME280;29527;55.766;37.570;2023-03-20T13:41:37;99797.91;;;9.22;30.50
37792;BME280;29527;55.766;37.570;2023-03-20T13:44:04;99802.53;;;9.31;30.77
37792;BME280;29527;55.766;37.570;2023-03-20T13:46:40;99801.00;;;9.40;30.64
37792;BME280;29527;55.766;37.570;2023-03-20T13:49:15;99801.63;;;9.44;30.87
37792;BME280;29527;55.766;37.570;2023-03-20T13:51:58;99800.41;;;9.48;31.02
37792;BME280;29527;55.766;37.570;2023-03-20T13:54:49;99799.44;;;9.49;30.82
37792;BME280;29527;55.766;37.570;2023-03-20T13:57:50;99796.53;;;9.52;30.61
37792;BME280;29527;55.766;37.570;2023-03-20T14:00:27;99785.34;;;9.47;30.55
37792;BME280;29527;55.766;37.570;2023-03-20T14:03:30;99785.09;;;9.50;30.49
37792;BME280;29527;55.766;37.570;2023-03-20T14:05:57;99778.88;;;9.38;31.00
37792;BME280;29527;55.766;37.570;2023-03-20T14:08:33;99779.50;;;9.42;31.06
37792;BME280;29527;55.766;37.570;2023-03-20T14:11:14;99780.25;;;9.44;30.48
37792;BME280;29527;55.766;37.570;2023-03-20T14:13:54;99780.69;;;9.38;30.84
37792;BME280;29527;55.766;37.570;2023-03-20T14:16:20;99763.03;;;9.24;31.57
37792;BME280;29527;55.766;37.570;2023-03-20T14:18:48;99771.06;;;9.24;31.75
37792;BME280;29527;55.766;37.570;2023-03-20T14:21:18;99759.41;;;9.25;31.99
37792;BME280;29527;55.766;37.570;2023-03-20T14:24:01;99759.78;;;9.31;31.26
37792;BME280;29527;55.766;37.570;2023-03-20T14:26:29;99764.16;;;9.21;31.44
37792;BME280;29527;55.766;37.570;2023-03-20T14:31:39;99761.41;;;9.10;31.74
37792;BME280;29527;55.766;37.570;2023-03-20T14:34:13;99760.19;;;9.02;32.07
37792;BME280;29527;55.766;37.570;2023-03-20T14:36:59;99751.22;;;9.03;31.74
37792;BME280;29527;55.766;37.570;2023-03-20T14:39:49;99756.16;;;8.97;32.21
37792;BME280;29527;55.766;37.570;2023-03-20T14:50:16;99753.94;;;8.66;33.23
37792;BME280;29527;55.766;37.570;2023-03-20T14:52:53;99749.94;;;8.60;33.35
37792;BME280;29527;55.766;37.570;2023-03-20T14:57:46;99756.06;;;8.50;34.09
37792;BME280;29527;55.766;37.570;2023-03-20T15:00:26;99753.47;;;8.48;34.51
37792;BME280;29527;55.766;37.570;2023-03-20T15:03:09;99754.56;;;8.45;34.14
37792;BME280;29527;55.766;37.570;2023-03-20T15:05:37;99744.34;;;8.26;35.12
37792;BME280;29527;55.766;37.570;2023-03-20T15:08:07;99748.09;;;8.24;35.60
37792;BME280;29527;55.766;37.570;2023-03-20T15:10:35;99740.88;;;8.13;35.93
37792;BME280;29527;55.766;37.570;2023-03-20T15:13:04;99743.13;;;8.06;36.09
37792;BME280;29527;55.766;37.570;2023-03-20T15:15:31;99736.22;;;7.90;36.32
37792;BME280;29527;55.766;37.570;2023-03-20T15:18:09;99755.19;;;7.99;36.43
37792;BME280;29527;55.766;37.570;2023-03-20T15:20:35;99736.66;;;7.84;36.64
37792;BME280;29527;55.766;37.570;2023-03-20T15:23:01;99747.63;;;7.80;37.42